createdAt,value
2019-05-08T00:02:25.503Z,14.47
2019-05-08T00:04:55.886Z,20.23
2019-05-08T00:07:25.760Z,15.53
2019-05-08T00:09:55.613Z,18.27
2019-05-08T00:12:25.464Z,15.80
2019-05-08T00:14:56.509Z,16.10
2019-05-08T00:17:26.444Z,13.67
2019-05-08T00:19:56.299Z,18.33
2019-05-08T00:22:26.148Z,15.57
2019-05-08T00:24:55.980Z,17.67
2019-05-08T00:27:27.391Z,15.33
2019-05-08T00:29:57.651Z,14.07
2019-05-08T00:32:45.056Z,14.10
2019-05-08T00:35:25.114Z,12.57
2019-05-08T00:37:55.067Z,12.30
2019-05-08T00:40:24.901Z,14.30
2019-05-08T00:42:54.861Z,15.47
2019-05-08T00:45:24.731Z,14.50
2019-05-08T00:48:04.586Z,14.37
2019-05-08T00:50:26.140Z,16.47
2019-05-08T00:52:56.011Z,16.90
2019-05-08T00:55:28.588Z,13.83
2019-05-08T00:58:03.944Z,17.10
2019-05-08T01:00:52.066Z,16.03
2019-05-08T01:03:22.340Z,13.10
2019-05-08T01:05:52.329Z,13.67
2019-05-08T01:08:22.182Z,13.87
2019-05-08T01:10:52.051Z,20.73
2019-05-08T01:13:22.962Z,18.53
2019-05-08T01:15:53.031Z,11.53
2019-05-08T01:18:22.972Z,18.40
2019-05-08T01:20:52.826Z,16.90
2019-05-08T01:23:22.687Z,17.73
2019-05-08T01:25:52.592Z,14.37
2019-05-08T01:28:22.887Z,19.73
2019-05-08T01:30:53.084Z,14.03
2019-05-08T01:33:23.014Z,15.87
2019-05-08T01:35:52.885Z,9.37
2019-05-08T01:38:32.082Z,17.03
2019-05-08T01:41:07.622Z,17.97
2019-05-08T01:43:37.475Z,15.00
2019-05-08T01:46:07.475Z,16.30
2019-05-08T01:48:37.407Z,14.00
2019-05-08T01:51:07.265Z,16.00
2019-05-08T01:53:37.120Z,15.10
2019-05-08T01:56:06.992Z,16.00
2019-05-08T01:58:36.889Z,11.97
2019-05-08T02:01:06.735Z,13.37
2019-05-08T02:03:36.675Z,12.70
2019-05-08T02:06:06.657Z,11.63
2019-05-08T02:08:36.520Z,11.50
2019-05-08T02:11:06.378Z,10.90
2019-05-08T02:13:36.811Z,11.43
2019-05-08T02:16:06.780Z,10.20
2019-05-08T02:18:37.048Z,11.37
2019-05-08T02:21:18.513Z,13.93
2019-05-08T02:24:07.368Z,13.20
2019-05-08T02:26:46.776Z,12.03
2019-05-08T02:29:16.640Z,9.57
2019-05-08T02:31:46.524Z,11.20
2019-05-08T02:34:16.401Z,10.73
2019-05-08T02:36:57.671Z,8.77
2019-05-08T02:39:20.014Z,11.57
2019-05-08T02:41:50.797Z,15.87
2019-05-08T02:44:20.844Z,11.40
2019-05-08T02:46:50.971Z,13.00
2019-05-08T02:49:21.392Z,13.07
2019-05-08T02:51:52.205Z,14.47
2019-05-08T02:54:22.073Z,12.33
2019-05-08T02:56:52.027Z,15.63
2019-05-08T02:59:22.897Z,9.70
2019-05-08T03:02:00.103Z,11.70
2019-05-08T03:04:31.862Z,10.90
2019-05-08T03:07:00.477Z,9.50
2019-05-08T03:09:30.532Z,7.77
2019-05-08T03:12:01.031Z,9.27
2019-05-08T03:14:31.183Z,10.37
2019-05-08T03:17:01.075Z,9.43
2019-05-08T03:19:30.944Z,9.47
2019-05-08T03:22:01.564Z,12.80
2019-05-08T03:24:40.441Z,10.97
2019-05-08T03:27:11.580Z,11.30
2019-05-08T03:29:41.573Z,11.20
2019-05-08T03:32:13.779Z,12.03
2019-05-08T03:34:44.326Z,10.37
2019-05-08T03:37:14.800Z,10.50
2019-05-08T03:39:44.668Z,10.63
2019-05-08T03:42:14.513Z,11.20
2019-05-08T03:44:45.360Z,11.37
2019-05-08T03:47:34.125Z,12.03
2019-05-08T03:50:04.402Z,14.13
2019-05-08T03:52:34.227Z,11.03
2019-05-08T03:55:04.328Z,12.10
2019-05-08T03:57:34.201Z,10.83
2019-05-08T04:00:05.766Z,9.50
2019-05-08T04:02:36.533Z,12.27
2019-05-08T04:05:07.100Z,12.00
2019-05-08T04:07:40.658Z,10.73
2019-05-08T04:10:10.797Z,9.73
2019-05-08T04:12:40.786Z,14.77
2019-05-08T04:15:13.836Z,12.33
2019-05-08T04:17:45.580Z,15.93
2019-05-08T04:20:15.636Z,15.50
2019-05-08T04:22:46.494Z,13.83
2019-05-08T04:25:20.175Z,15.50
2019-05-08T04:27:50.435Z,16.40
2019-05-08T04:30:22.047Z,21.30
2019-05-08T04:32:52.363Z,13.43
2019-05-08T04:35:22.254Z,15.27
2019-05-08T04:37:52.215Z,13.60
2019-05-08T04:40:22.149Z,14.07
2019-05-08T04:42:52.270Z,11.73
2019-05-08T04:45:24.544Z,14.80
2019-05-08T04:47:54.413Z,12.50
2019-05-08T04:50:24.266Z,13.60
2019-05-08T04:53:22.073Z,15.10
2019-05-08T04:55:51.913Z,11.83
2019-05-08T04:58:22.713Z,11.57
2019-05-08T05:00:52.860Z,11.73
2019-05-08T05:03:22.796Z,18.90
2019-05-08T05:05:53.940Z,9.87
2019-05-08T05:08:23.835Z,12.97
2019-05-08T05:10:53.691Z,13.73
2019-05-08T05:13:23.540Z,11.67
2019-05-08T05:16:09.754Z,9.63
2019-05-08T05:18:41.265Z,11.93
2019-05-08T05:21:10.080Z,12.33
2019-05-08T05:23:42.079Z,13.17
2019-05-08T05:26:11.958Z,14.13
2019-05-08T05:28:41.895Z,14.37
2019-05-08T05:31:11.786Z,14.93
2019-05-08T05:33:41.740Z,10.23
2019-05-08T05:36:11.620Z,14.40
2019-05-08T05:38:42.648Z,9.73
2019-05-08T05:41:31.328Z,13.33
2019-05-08T05:44:01.812Z,11.50
2019-05-08T05:46:31.671Z,17.83
2019-05-08T05:49:01.631Z,19.07
2019-05-08T05:51:31.485Z,14.93
2019-05-08T05:54:01.336Z,12.30
2019-05-08T05:56:31.187Z,14.40
2019-05-08T05:59:01.044Z,13.80
2019-05-08T06:01:30.898Z,10.80
2019-05-08T06:04:00.867Z,14.23
2019-05-08T06:06:30.808Z,13.23
2019-05-08T06:09:00.643Z,15.27
2019-05-08T06:11:30.496Z,11.33
2019-05-08T06:14:00.368Z,16.13
2019-05-08T06:16:52.375Z,13.73
2019-05-08T06:19:22.216Z,12.03
2019-05-08T06:21:52.180Z,11.60
2019-05-08T06:24:22.044Z,13.40
2019-05-08T06:26:51.936Z,13.83
2019-05-08T06:29:21.778Z,14.30
2019-05-08T06:31:51.640Z,12.93
2019-05-08T06:34:21.509Z,12.70
2019-05-08T06:36:51.606Z,11.73
2019-05-08T06:39:22.007Z,15.70
2019-05-08T06:41:52.103Z,10.03
2019-05-08T06:44:49.932Z,13.43
2019-05-08T06:47:31.627Z,13.03
2019-05-08T06:50:02.180Z,15.07
2019-05-08T06:52:32.504Z,10.60
2019-05-08T06:55:02.752Z,15.23
2019-05-08T06:57:33.394Z,12.63
2019-05-08T07:00:03.928Z,10.13
2019-05-08T07:02:34.066Z,13.20
2019-05-08T07:05:04.635Z,10.70
2019-05-08T07:07:38.702Z,12.03
2019-05-08T07:10:09.558Z,11.00
2019-05-08T07:12:40.170Z,11.47
2019-05-08T07:15:20.025Z,10.23
2019-05-08T07:18:07.542Z,12.60
2019-05-08T07:20:58.974Z,12.33
2019-05-08T07:23:30.132Z,19.17
2019-05-08T07:26:00.638Z,16.03
2019-05-08T07:28:34.693Z,15.03
2019-05-08T07:31:21.930Z,14.67
2019-05-08T07:33:43.708Z,12.97
2019-05-08T07:36:11.950Z,13.53
2019-05-08T07:38:42.673Z,13.90
2019-05-08T07:41:12.967Z,13.83
2019-05-08T07:43:44.523Z,15.20
2019-05-08T07:46:15.033Z,21.33
2019-05-08T07:48:45.741Z,14.17
2019-05-08T07:51:16.336Z,14.70
2019-05-08T07:53:46.369Z,12.07
2019-05-08T07:56:22.098Z,14.80
2019-05-08T07:58:52.916Z,20.17
2019-05-08T08:01:38.114Z,18.87
2019-05-08T08:04:19.151Z,22.73
2019-05-08T08:06:52.753Z,21.50
2019-05-08T08:09:23.026Z,18.97
2019-05-08T08:11:53.479Z,12.57
2019-05-08T08:14:23.452Z,13.93
2019-05-08T08:16:59.961Z,15.50
2019-05-08T08:19:30.591Z,16.17
2019-05-08T08:22:01.171Z,12.80
2019-05-08T08:24:31.618Z,13.37
2019-05-08T08:27:02.359Z,12.60
2019-05-08T08:29:32.775Z,11.47
2019-05-08T08:32:04.375Z,14.00
2019-05-08T08:34:35.203Z,12.23
2019-05-08T08:37:05.452Z,12.63
2019-05-08T08:39:35.820Z,13.60
2019-05-08T08:42:09.238Z,15.97
2019-05-08T08:44:40.016Z,11.90
2019-05-08T08:47:35.807Z,13.97
2019-05-08T08:50:19.398Z,13.87
2019-05-08T08:53:07.297Z,12.43
2019-05-08T08:55:39.220Z,14.43
2019-05-08T08:58:11.428Z,15.13
2019-05-08T09:00:42.779Z,15.63
2019-05-08T09:03:13.031Z,14.47
2019-05-08T09:05:43.609Z,10.37
2019-05-08T09:08:14.336Z,17.33
2019-05-08T09:10:44.605Z,10.23
2019-05-08T09:13:14.964Z,13.87
2019-05-08T09:15:45.282Z,15.93
2019-05-08T09:18:15.712Z,16.17
2019-05-08T09:20:46.171Z,20.03
2019-05-08T09:23:16.532Z,21.47
2019-05-08T09:25:49.014Z,15.23
2019-05-08T09:28:20.143Z,14.53
2019-05-08T09:31:11.118Z,18.77
2019-05-08T09:33:43.427Z,18.00
2019-05-08T09:36:13.679Z,22.17
2019-05-08T09:38:43.979Z,24.83
2019-05-08T09:41:14.348Z,20.77
2019-05-08T09:43:44.548Z,21.97
2019-05-08T09:46:15.068Z,16.50
2019-05-08T09:48:45.401Z,14.43
2019-05-08T09:51:15.815Z,16.47
2019-05-08T09:53:59.822Z,18.97
2019-05-08T09:56:30.257Z,10.57
2019-05-08T09:59:00.618Z,12.47
2019-05-08T10:01:30.820Z,14.30
2019-05-08T10:04:01.163Z,15.27
2019-05-08T10:06:32.279Z,12.80
2019-05-08T10:09:02.756Z,16.30
2019-05-08T10:11:36.149Z,12.83
2019-05-08T10:14:05.203Z,12.00
2019-05-08T10:16:35.451Z,12.37
2019-05-08T10:19:10.055Z,16.07
2019-05-08T10:21:40.017Z,10.17
2019-05-08T10:24:10.621Z,14.67
2019-05-08T10:26:40.977Z,8.87
2019-05-08T10:29:11.681Z,11.70
2019-05-08T10:31:45.107Z,12.40
2019-05-08T10:34:15.285Z,10.97
2019-05-08T10:36:50.225Z,9.67
2019-05-08T10:39:21.052Z,9.00
2019-05-08T10:41:52.712Z,12.53
2019-05-08T10:44:23.037Z,9.60
2019-05-08T10:47:12.922Z,9.30
2019-05-08T10:49:43.224Z,8.73
2019-05-08T10:52:13.442Z,12.67
2019-05-08T10:54:43.780Z,11.67
2019-05-08T10:57:14.445Z,11.03
2019-05-08T10:59:44.644Z,11.13
2019-05-08T11:02:15.004Z,11.57
2019-05-08T11:04:45.161Z,9.23
2019-05-08T11:07:39.541Z,10.43
2019-05-08T11:10:30.537Z,8.13
2019-05-08T11:13:00.851Z,6.60
2019-05-08T11:15:31.337Z,13.13
2019-05-08T11:18:01.881Z,9.57
2019-05-08T11:20:32.208Z,15.67
2019-05-08T11:23:02.399Z,8.27
2019-05-08T11:25:32.720Z,8.43
2019-05-08T11:28:03.976Z,8.53
2019-05-08T11:30:34.300Z,7.83
2019-05-08T11:33:04.838Z,9.60
2019-05-08T11:35:35.074Z,6.80
2019-05-08T11:38:05.254Z,6.63
2019-05-08T11:40:59.745Z,7.93
2019-05-08T11:44:00.045Z,5.77
2019-05-08T11:46:33.469Z,8.13
2019-05-08T11:49:03.800Z,7.80
2019-05-08T11:51:34.327Z,11.87
2019-05-08T11:54:04.561Z,9.67
2019-05-08T11:56:34.688Z,8.07
2019-05-08T11:59:05.017Z,6.00
2019-05-08T12:01:35.211Z,6.07
2019-05-08T12:04:05.701Z,7.27
2019-05-08T12:06:35.995Z,6.53
2019-05-08T12:09:11.371Z,5.43
2019-05-08T12:11:40.627Z,6.37
2019-05-08T12:14:10.723Z,6.50
2019-05-08T12:16:43.608Z,5.30
2019-05-08T12:19:13.695Z,4.40
2019-05-08T12:21:43.967Z,6.97
2019-05-08T12:24:13.942Z,5.77
2019-05-08T12:26:49.604Z,6.33
2019-05-08T12:29:41.642Z,7.03
2019-05-08T12:32:33.614Z,4.63
2019-05-08T12:35:10.251Z,6.83
2019-05-08T12:37:40.351Z,9.33
2019-05-08T12:40:10.772Z,7.47
2019-05-08T12:42:40.857Z,6.90
2019-05-08T12:45:11.012Z,7.30
2019-05-08T12:47:41.057Z,11.17
2019-05-08T12:50:14.979Z,5.77
2019-05-08T12:52:44.955Z,5.53
2019-05-08T12:55:20.818Z,5.13
2019-05-08T12:57:51.094Z,5.83
2019-05-08T13:00:32.447Z,4.97
2019-05-08T13:03:02.380Z,6.97
2019-05-08T13:05:32.348Z,4.53
2019-05-08T13:08:02.382Z,6.50
2019-05-08T13:10:32.848Z,4.67
2019-05-08T13:13:02.811Z,5.67
2019-05-08T13:15:32.713Z,5.77
2019-05-08T13:18:02.647Z,3.80
2019-05-08T13:20:32.622Z,5.27
2019-05-08T13:23:02.697Z,5.67
2019-05-08T13:25:32.937Z,5.37
2019-05-08T13:28:03.048Z,5.50
2019-05-08T13:30:33.358Z,3.97
2019-05-08T13:33:03.364Z,3.30
2019-05-08T13:35:33.280Z,6.40
2019-05-08T13:38:03.361Z,5.13
2019-05-08T13:40:33.314Z,5.53
2019-05-08T13:43:04.992Z,3.87
2019-05-08T13:45:40.914Z,3.63
2019-05-08T13:48:07.233Z,5.13
2019-05-08T13:51:01.991Z,5.77
2019-05-08T13:53:36.085Z,7.93
2019-05-08T13:56:06.510Z,7.57
2019-05-08T13:58:40.162Z,4.20
2019-05-08T14:01:12.712Z,4.27
2019-05-08T14:03:43.151Z,5.33
2019-05-08T14:06:13.444Z,5.73
2019-05-08T14:08:46.042Z,6.73
2019-05-08T14:11:16.338Z,6.47
2019-05-08T14:13:49.938Z,5.20
2019-05-08T14:16:20.674Z,8.83
2019-05-08T14:18:51.629Z,6.47
2019-05-08T14:21:21.896Z,4.53
2019-05-08T14:23:52.411Z,8.57
2019-05-08T14:26:22.703Z,5.70
2019-05-08T14:28:54.237Z,7.10
2019-05-08T14:31:24.893Z,7.37
2019-05-08T14:34:17.023Z,5.70
2019-05-08T14:36:48.340Z,4.73
2019-05-08T14:39:19.541Z,7.20
2019-05-08T14:41:54.077Z,5.33
2019-05-08T14:44:22.215Z,3.83
2019-05-08T14:46:52.950Z,6.27
2019-05-08T14:49:23.302Z,6.00
2019-05-08T14:51:53.603Z,6.53
2019-05-08T14:54:23.952Z,7.90
2019-05-08T14:56:54.168Z,7.30
2019-05-08T14:59:24.449Z,8.50
2019-05-08T15:01:54.812Z,6.70
2019-05-08T15:04:24.830Z,5.00
2019-05-08T15:06:59.202Z,7.87
2019-05-08T15:09:29.812Z,10.43
2019-05-08T15:12:00.286Z,6.30
2019-05-08T15:14:30.697Z,7.27
2019-05-08T15:17:01.208Z,7.53
2019-05-08T15:19:31.195Z,6.23
2019-05-08T15:22:01.488Z,8.93
2019-05-08T15:24:31.447Z,6.40
2019-05-08T15:27:01.484Z,6.77
2019-05-08T15:29:59.718Z,4.73
2019-05-08T15:32:42.562Z,7.77
2019-05-08T15:35:12.613Z,7.87
2019-05-08T15:37:43.763Z,9.47
2019-05-08T15:40:15.617Z,8.93
2019-05-08T15:42:45.821Z,9.03
2019-05-08T15:45:17.164Z,8.43
2019-05-08T15:47:53.620Z,7.23
2019-05-08T15:50:24.801Z,9.40
2019-05-08T15:52:55.464Z,7.50
2019-05-08T15:55:25.924Z,10.57
2019-05-08T15:57:56.302Z,11.73
2019-05-08T16:00:34.109Z,9.90
2019-05-08T16:03:04.672Z,8.27
2019-05-08T16:05:35.186Z,9.63
2019-05-08T16:08:05.456Z,5.60
2019-05-08T16:10:36.189Z,7.33
2019-05-08T16:13:09.897Z,14.80
2019-05-08T16:15:40.998Z,16.77
2019-05-08T16:18:11.551Z,13.87
2019-05-08T16:20:41.985Z,11.50
2019-05-08T16:23:12.229Z,10.73
2019-05-08T16:25:42.636Z,9.87
2019-05-08T16:28:12.919Z,11.40
2019-05-08T16:31:11.110Z,13.07
2019-05-08T16:34:04.415Z,16.07
2019-05-08T16:36:42.584Z,11.60
2019-05-08T16:39:08.403Z,11.93
2019-05-08T16:41:38.848Z,12.03
2019-05-08T16:44:09.453Z,12.43
2019-05-08T16:46:49.858Z,9.33
2019-05-08T16:49:34.304Z,14.60
2019-05-08T16:52:04.872Z,11.67
2019-05-08T16:54:36.815Z,12.60
2019-05-08T16:57:07.017Z,10.93
2019-05-08T16:59:37.018Z,11.57
2019-05-08T17:02:07.115Z,14.83
2019-05-08T17:04:37.118Z,7.53
2019-05-08T17:07:07.584Z,10.53
2019-05-08T17:09:38.037Z,6.23
2019-05-08T17:12:08.587Z,8.17
2019-05-08T17:14:38.525Z,8.27
2019-05-08T17:17:08.603Z,7.47
2019-05-08T17:19:38.584Z,8.47
2019-05-08T17:22:27.293Z,6.10
2019-05-08T17:25:03.525Z,10.47
2019-05-08T17:27:58.151Z,5.13
2019-05-08T17:30:47.508Z,7.63
2019-05-08T17:33:18.747Z,7.07
2019-05-08T17:35:49.431Z,4.70
2019-05-08T17:38:45.469Z,8.07
2019-05-08T17:41:15.530Z,4.70
2019-05-08T17:43:45.927Z,4.60
2019-05-08T17:46:21.809Z,3.93
2019-05-08T17:48:53.130Z,4.37
2019-05-08T17:51:23.935Z,4.53
2019-05-08T17:53:54.016Z,10.97
2019-05-08T17:56:24.367Z,8.50
2019-05-08T17:58:55.094Z,6.20
2019-05-08T18:01:25.328Z,3.60
2019-05-08T18:03:55.881Z,3.07
2019-05-08T18:06:25.968Z,6.63
2019-05-08T18:08:56.997Z,3.23
2019-05-08T18:11:27.215Z,3.63
2019-05-08T18:13:57.780Z,4.07
2019-05-08T18:16:48.014Z,5.97
2019-05-08T18:19:18.372Z,7.77
2019-05-08T18:22:06.164Z,3.87
2019-05-08T18:24:41.012Z,1.97
2019-05-08T18:27:13.625Z,6.20
2019-05-08T18:29:49.881Z,2.90
2019-05-08T18:32:39.374Z,17.57
2019-05-08T18:35:13.695Z,3.47
2019-05-08T18:37:49.429Z,4.93
2019-05-08T18:40:15.371Z,5.27
2019-05-08T18:42:45.585Z,5.97
2019-05-08T18:45:16.528Z,12.40
2019-05-08T18:47:46.801Z,4.73
2019-05-08T18:50:17.232Z,3.97
2019-05-08T18:53:13.369Z,3.07
2019-05-08T18:55:43.896Z,3.80
2019-05-08T18:58:14.152Z,4.23
2019-05-08T19:00:44.651Z,4.60
2019-05-08T19:03:14.905Z,4.03
2019-05-08T19:05:46.486Z,2.80
2019-05-08T19:08:18.028Z,3.40
2019-05-08T19:10:48.464Z,2.47
2019-05-08T19:13:18.880Z,2.87
2019-05-08T19:15:49.220Z,3.50
2019-05-08T19:18:19.631Z,4.20
2019-05-08T19:21:09.347Z,4.13
2019-05-08T19:23:39.729Z,4.43
2019-05-08T19:26:14.057Z,4.27
2019-05-08T19:28:44.981Z,5.20
2019-05-08T19:31:16.268Z,6.70
2019-05-08T19:33:47.087Z,5.33
2019-05-08T19:36:19.543Z,4.53
2019-05-08T19:38:54.693Z,3.80
2019-05-08T19:41:27.894Z,4.07
2019-05-08T19:44:01.425Z,2.87
2019-05-08T19:46:33.820Z,7.17
2019-05-08T19:49:03.960Z,4.07
2019-05-08T19:51:34.095Z,3.70
2019-05-08T19:54:04.253Z,4.60
2019-05-08T19:56:34.498Z,4.83
2019-05-08T19:59:05.244Z,5.03
2019-05-08T20:01:35.782Z,3.67
2019-05-08T20:04:06.269Z,5.50
2019-05-08T20:06:38.046Z,4.50
2019-05-08T20:09:09.593Z,3.60
2019-05-08T20:11:39.644Z,2.17
2019-05-08T20:14:09.452Z,3.40
2019-05-08T20:16:39.321Z,1.90
2019-05-08T20:19:30.870Z,2.53
2019-05-08T20:22:03.585Z,1.83
2019-05-08T20:24:34.015Z,1.80
2019-05-08T20:27:04.176Z,2.13
2019-05-08T20:29:34.043Z,2.90
2019-05-08T20:32:04.148Z,1.97
2019-05-08T20:34:35.666Z,1.90
2019-05-08T20:37:05.680Z,2.23
2019-05-08T20:39:35.567Z,2.07
2019-05-08T20:42:05.508Z,2.23
2019-05-08T20:44:35.565Z,2.50
2019-05-08T20:47:06.769Z,2.07
2019-05-08T20:49:37.503Z,1.40
2019-05-08T20:52:07.623Z,2.17
2019-05-08T20:54:37.751Z,2.10
2019-05-08T20:57:09.903Z,3.07
2019-05-08T20:59:40.051Z,1.77
2019-05-08T21:02:10.351Z,1.60
2019-05-08T21:04:47.934Z,1.87
2019-05-08T21:07:18.211Z,2.80
2019-05-08T21:09:48.850Z,2.07
2019-05-08T21:12:18.975Z,2.40
2019-05-08T21:14:49.142Z,2.07
2019-05-08T21:17:19.407Z,2.50
2019-05-08T21:19:53.654Z,4.00
2019-05-08T21:22:31.697Z,3.13
2019-05-08T21:25:04.343Z,2.43
2019-05-08T21:27:34.734Z,2.57
2019-05-08T21:30:05.265Z,2.77
2019-05-08T21:32:35.726Z,3.93
2019-05-08T21:35:06.218Z,4.23
2019-05-08T21:37:37.464Z,3.03
2019-05-08T21:40:08.541Z,2.90
2019-05-08T21:42:38.684Z,3.87
2019-05-08T21:45:09.053Z,2.30
2019-05-08T21:47:40.298Z,2.77
2019-05-08T21:50:10.980Z,3.60
2019-05-08T21:52:50.572Z,5.97
2019-05-08T21:55:23.559Z,4.43
2019-05-08T21:57:54.137Z,2.80
2019-05-08T22:00:44.312Z,3.60
2019-05-08T22:03:23.824Z,9.57
2019-05-08T22:05:54.452Z,2.93
2019-05-08T22:08:25.901Z,2.57
2019-05-08T22:10:56.179Z,2.73
2019-05-08T22:13:27.555Z,3.80
2019-05-08T22:15:57.879Z,6.90
2019-05-08T22:18:28.310Z,5.20
2019-05-08T22:20:58.404Z,3.50
2019-05-08T22:23:28.860Z,3.10
2019-05-08T22:25:59.092Z,3.10
2019-05-08T22:28:30.291Z,3.77
2019-05-08T22:31:00.561Z,4.97
2019-05-08T22:33:54.339Z,3.50
2019-05-08T22:36:28.872Z,3.63
2019-05-08T22:39:00.541Z,6.67
2019-05-08T22:41:30.784Z,3.87
2019-05-08T22:44:03.525Z,3.73
2019-05-08T22:46:33.344Z,5.63
2019-05-08T22:49:04.122Z,7.60
2019-05-08T22:51:34.447Z,6.77
2019-05-08T22:54:05.260Z,4.53
2019-05-08T22:56:35.446Z,7.80
2019-05-08T22:59:05.771Z,6.67
2019-05-08T23:01:36.047Z,8.03
2019-05-08T23:04:06.319Z,4.70
2019-05-08T23:06:36.652Z,4.93
2019-05-08T23:09:14.061Z,8.97
2019-05-08T23:11:46.038Z,8.57
2019-05-08T23:14:16.278Z,5.00
2019-05-08T23:16:46.438Z,3.83
2019-05-08T23:19:16.660Z,3.97
2019-05-08T23:21:46.880Z,6.27
2019-05-08T23:24:17.103Z,7.07
2019-05-08T23:26:47.431Z,8.20
2019-05-08T23:29:17.752Z,8.70
2019-05-08T23:31:48.010Z,7.77
2019-05-08T23:34:18.260Z,4.20
2019-05-08T23:36:55.435Z,6.87
2019-05-08T23:39:25.366Z,4.20
2019-05-08T23:41:55.724Z,10.20
2019-05-08T23:44:34.983Z,5.37
2019-05-08T23:47:24.212Z,6.47
2019-05-08T23:49:54.449Z,9.80
2019-05-08T23:52:25.094Z,10.60
2019-05-08T23:54:55.257Z,8.90
2019-05-08T23:57:25.580Z,8.77
2019-05-08T23:59:55.732Z,8.37
